Time;durP1;ratioP1;P1;durP2;ratioP2;P2;SDS_P1;SDS_P2;PMS_P1;PMS_P2;Temp;Humidity;BMP_temperature;BMP_pressure;BME280_temperature;BME280_humidity;BME280_pressure;Samples;Min_cycle;Max_cycle;Signal;HPM_P1;HPM_P2
2022/07/12 00:02:04;;;;;;;7.90;4.90;;;16.60;99.90;;;;;;5079827;28;20503;-76
2022/07/12 00:04:31;;;;;;;6.67;5.67;;;16.50;99.90;;;;;;5079310;28;20466;-77
2022/07/12 00:06:59;;;;;;;12.03;5.10;;;16.50;99.90;;;;;;5093694;28;20437;-77
2022/07/12 00:09:26;;;;;;;5.30;4.77;;;16.40;99.90;;;;;;5095089;28;20453;-77
2022/07/12 00:11:52;;;;;;;6.73;5.20;;;16.40;99.90;;;;;;5094541;28;20444;-77
2022/07/12 00:14:19;;;;;;;5.60;5.00;;;16.30;99.90;;;;;;5094531;28;20456;-77
2022/07/12 00:16:46;;;;;;;7.67;5.70;;;16.30;99.90;;;;;;5087023;28;20448;-78
2022/07/12 00:19:13;;;;;;;5.90;5.10;;;16.20;99.90;;;;;;5081631;28;20472;-77
2022/07/12 00:21:39;;;;;;;8.13;5.40;;;16.20;99.90;;;;;;5081755;28;20491;-78
2022/07/12 00:24:07;;;;;;;7.97;4.43;;;16.20;99.90;;;;;;5079437;28;20456;-78
2022/07/12 00:26:34;;;;;;;5.80;4.00;;;16.20;99.90;;;;;;5079106;28;20535;-78
2022/07/12 00:29:01;;;;;;;4.73;4.30;;;16.00;99.90;;;;;;5077676;28;20448;-77
2022/07/12 00:31:28;;;;;;;3.57;3.27;;;16.20;99.90;;;;;;5076190;28;20808;-77
2022/07/12 00:33:54;;;;;;;11.30;4.23;;;16.20;99.90;;;;;;5075861;28;20429;-77
2022/07/12 00:36:21;;;;;;;3.90;3.57;;;16.20;99.90;;;;;;5080147;28;20451;-81
2022/07/12 00:38:49;;;;;;;5.10;3.50;;;16.10;99.90;;;;;;5078682;28;20469;-83
2022/07/12 00:41:23;;;;;;;4.77;3.10;;;16.20;99.90;;;;;;5078667;28;20488;-84
2022/07/12 00:43:50;;;;;;;4.27;3.30;;;16.20;99.90;;;;;;5079263;28;20441;-82
2022/07/12 00:46:22;;;;;;;6.40;3.40;;;16.20;99.90;;;;;;5083063;28;20482;-83
2022/07/12 00:48:49;;;;;;;7.27;3.93;;;16.10;99.90;;;;;;5080574;28;20463;-84
2022/07/12 00:51:17;;;;;;;3.90;3.50;;;16.10;99.90;;;;;;5080615;28;20469;-82
2022/07/12 00:53:44;;;;;;;5.80;4.00;;;16.00;99.90;;;;;;5084418;28;20500;-81
2022/07/12 00:56:13;;;;;;;4.20;3.70;;;16.00;99.90;;;;;;5089374;28;20456;-80
2022/07/12 00:58:42;;;;;;;5.30;4.07;;;15.80;99.90;;;;;;5084277;28;20487;-82
2022/07/12 01:01:09;;;;;;;6.27;3.90;;;15.80;99.90;;;;;;5083333;28;20476;-80
2022/07/12 01:03:37;;;;;;;4.50;3.10;;;15.80;99.90;;;;;;5079766;28;20891;-83
2022/07/12 01:06:04;;;;;;;4.27;2.77;;;15.80;99.90;;;;;;5081150;28;20433;-82
2022/07/12 01:08:37;;;;;;;3.13;2.93;;;15.70;99.90;;;;;;5079855;28;20447;-77
2022/07/12 01:11:04;;;;;;;9.03;4.10;;;15.70;99.90;;;;;;5078773;28;20468;-81
2022/07/12 01:13:31;;;;;;;3.93;2.90;;;15.70;99.90;;;;;;5079551;28;20457;-82
2022/07/12 01:15:59;;;;;;;4.70;3.40;;;15.70;99.90;;;;;;5078976;28;20440;-82
2022/07/12 01:18:27;;;;;;;4.80;3.00;;;15.60;99.90;;;;;;5081070;28;20449;-82
2022/07/12 01:20:54;;;;;;;4.37;3.00;;;15.70;99.90;;;;;;5085119;28;20477;-82
2022/07/12 01:23:23;;;;;;;3.93;2.93;;;15.70;99.90;;;;;;5094892;28;20443;-80
2022/07/12 01:25:50;;;;;;;4.20;3.40;;;15.70;99.90;;;;;;5097437;28;20436;-80
2022/07/12 01:28:17;;;;;;;4.37;3.37;;;15.60;99.90;;;;;;5097209;28;20445;-81
2022/07/12 01:30:44;;;;;;;4.97;2.80;;;15.50;99.90;;;;;;5082154;28;20975;-76
2022/07/12 01:33:11;;;;;;;5.10;3.13;;;15.50;99.90;;;;;;5076854;28;20437;-77
2022/07/12 01:35:38;;;;;;;3.20;3.00;;;15.50;99.90;;;;;;5074143;28;20445;-77
2022/07/12 01:38:06;;;;;;;4.23;2.90;;;15.60;99.90;;;;;;5073654;28;20447;-77
2022/07/12 01:40:35;;;;;;;3.53;3.07;;;15.60;99.90;;;;;;5075945;28;20838;-77
2022/07/12 01:43:02;;;;;;;3.53;3.10;;;15.50;99.90;;;;;;5076943;28;20448;-77
2022/07/12 01:45:29;;;;;;;3.50;3.20;;;15.50;99.90;;;;;;5074974;28;20449;-78
2022/07/12 01:47:58;;;;;;;7.60;2.90;;;15.50;99.90;;;;;;5075496;28;20444;-79
2022/07/12 01:50:25;;;;;;;3.50;3.13;;;15.40;99.90;;;;;;5074967;28;20485;-78
2022/07/12 01:52:52;;;;;;;5.17;3.20;;;15.30;99.90;;;;;;5075988;28;20452;-79
2022/07/12 01:55:20;;;;;;;7.63;3.30;;;15.40;99.90;;;;;;5073856;28;20453;-77
2022/07/12 01:57:48;;;;;;;3.27;2.97;;;15.30;99.90;;;;;;5074283;28;20494;-77
2022/07/12 02:00:16;;;;;;;4.80;3.17;;;15.40;99.90;;;;;;5075310;28;20461;-76
2022/07/12 02:02:46;;;;;;;2.63;2.43;;;15.30;99.90;;;;;;5075157;28;20488;-76
2022/07/12 02:05:12;;;;;;;10.17;3.20;;;15.30;99.90;;;;;;5074067;28;20810;-77
2022/07/12 02:07:41;;;;;;;3.37;3.13;;;15.30;99.90;;;;;;5074061;28;20449;-77
2022/07/12 02:10:09;;;;;;;4.47;3.90;;;15.30;99.90;;;;;;5073818;28;20465;-77
2022/07/12 02:12:36;;;;;;;4.43;2.97;;;15.30;99.90;;;;;;5075806;28;20445;-77
2022/07/12 02:15:06;;;;;;;4.10;2.43;;;15.30;99.90;;;;;;5075399;28;20437;-77
2022/07/12 02:17:32;;;;;;;3.57;3.30;;;15.30;99.90;;;;;;5073870;28;20445;-77
2022/07/12 02:19:59;;;;;;;7.90;3.73;;;15.20;99.90;;;;;;5073913;28;20465;-77
2022/07/12 02:22:26;;;;;;;7.80;4.00;;;15.20;99.90;;;;;;5073632;28;20480;-77
2022/07/12 02:24:52;;;;;;;5.00;3.43;;;15.10;99.90;;;;;;5073703;28;20448;-77
2022/07/12 02:27:19;;;;;;;3.87;3.40;;;15.10;99.90;;;;;;5073847;28;20448;-77
2022/07/12 02:29:46;;;;;;;4.00;3.60;;;15.10;99.90;;;;;;5073514;28;20471;-76
2022/07/12 02:32:14;;;;;;;3.30;2.93;;;15.00;99.90;;;;;;5073709;28;20436;-77
2022/07/12 02:34:41;;;;;;;4.50;4.10;;;15.00;99.90;;;;;;5073500;28;20429;-77
2022/07/12 02:37:08;;;;;;;3.67;2.93;;;14.90;99.90;;;;;;5073364;28;20456;-76
2022/07/12 02:39:34;;;;;;;4.17;3.87;;;15.00;99.90;;;;;;5073169;28;20473;-77
2022/07/12 02:42:01;;;;;;;5.50;3.13;;;15.10;99.90;;;;;;5073450;28;20491;-77
2022/07/12 02:44:28;;;;;;;3.10;2.90;;;15.00;99.90;;;;;;5073936;28;20441;-76
2022/07/12 02:46:55;;;;;;;4.50;3.73;;;15.00;99.90;;;;;;5073030;28;20982;-77
2022/07/12 02:51:50;;;;;;;4.10;3.10;;;14.90;99.90;;;;;;5071478;28;20464;-75
2022/07/12 02:54:17;;;;;;;5.17;3.07;;;14.80;99.90;;;;;;5072115;28;20440;-75
2022/07/12 02:56:44;;;;;;;4.33;2.90;;;14.80;99.90;;;;;;5072258;28;20448;-76
2022/07/12 02:59:11;;;;;;;4.80;3.40;;;14.90;99.90;;;;;;5071900;28;20452;-75
2022/07/12 03:01:37;;;;;;;3.37;2.57;;;15.10;99.90;;;;;;5072190;28;20567;-75
2022/07/12 03:04:04;;;;;;;5.23;2.57;;;15.30;99.90;;;;;;5072270;28;20444;-75
2022/07/12 03:06:31;;;;;;;3.60;3.20;;;15.30;99.90;;;;;;5072036;28;20971;-75
2022/07/12 03:08:59;;;;;;;4.90;2.93;;;15.40;99.90;;;;;;5072504;28;20459;-75
2022/07/12 03:11:26;;;;;;;4.20;2.93;;;15.10;99.90;;;;;;5072253;28;20465;-75
2022/07/12 03:13:52;;;;;;;3.20;2.73;;;15.00;99.90;;;;;;5072171;28;20898;-75
2022/07/12 03:16:20;;;;;;;3.07;2.70;;;15.00;99.90;;;;;;5071910;28;20445;-75
2022/07/12 03:18:46;;;;;;;3.40;2.70;;;14.90;99.90;;;;;;5072225;28;20434;-75
2022/07/12 03:21:13;;;;;;;5.93;2.97;;;14.90;99.90;;;;;;5072273;28;20464;-75
2022/07/12 03:23:40;;;;;;;3.77;2.57;;;15.00;99.90;;;;;;5072365;28;20441;-75
2022/07/12 03:26:09;;;;;;;2.93;2.70;;;15.20;99.90;;;;;;5072268;28;20848;-75
2022/07/12 03:28:35;;;;;;;5.50;3.17;;;15.40;99.90;;;;;;5072086;28;20820;-75
2022/07/12 03:31:02;;;;;;;5.28;2.88;;;15.50;99.90;;;;;;5072343;28;20441;-75
2022/07/12 03:33:29;;;;;;;2.87;2.57;;;15.50;99.90;;;;;;5072264;28;20299;-75
2022/07/12 03:35:55;;;;;;;2.63;2.43;;;15.50;99.90;;;;;;5072113;28;20471;-75
2022/07/12 03:38:22;;;;;;;3.17;2.33;;;15.40;99.90;;;;;;5072103;28;20456;-75
2022/07/12 03:40:49;;;;;;;3.00;2.70;;;15.40;99.90;;;;;;5072012;28;20465;-75
2022/07/12 03:43:17;;;;;;;3.08;2.47;;;15.50;99.90;;;;;;5071161;28;21005;-74
2022/07/12 03:45:45;;;;;;;6.50;3.43;;;15.50;99.90;;;;;;5071930;28;20219;-74
2022/07/12 03:48:12;;;;;;;2.30;2.20;;;15.50;99.90;;;;;;5071982;28;20449;-74
2022/07/12 03:50:38;;;;;;;6.63;5.00;;;15.40;99.90;;;;;;5071686;28;20871;-74
2022/07/12 03:53:05;;;;;;;4.03;2.67;;;15.50;99.90;;;;;;5071917;28;20456;-75
2022/07/12 03:55:32;;;;;;;3.23;2.53;;;15.60;99.90;;;;;;5072211;28;20453;-74
2022/07/12 03:57:58;;;;;;;7.10;4.43;;;15.50;99.90;;;;;;5071995;28;20447;-75
2022/07/12 04:00:27;;;;;;;2.70;2.53;;;15.60;99.90;;;;;;5071770;28;20476;-74
2022/07/12 04:02:54;;;;;;;2.80;2.47;;;15.60;99.90;;;;;;5071951;28;20935;-75
2022/07/12 04:05:25;;;;;;;3.30;3.00;;;15.60;99.90;;;;;;5075352;28;20495;-75
2022/07/12 04:07:52;;;;;;;3.73;3.10;;;15.60;99.90;;;;;;5075522;28;20468;-75
2022/07/12 04:10:20;;;;;;;3.47;2.47;;;15.70;99.90;;;;;;5075488;28;20530;-75
2022/07/12 04:12:46;;;;;;;4.30;2.50;;;15.70;99.90;;;;;;5075117;28;20449;-74
2022/07/12 04:15:13;;;;;;;4.17;3.57;;;15.60;99.90;;;;;;5075854;28;20448;-76
2022/07/12 04:17:41;;;;;;;4.07;3.17;;;15.60;99.90;;;;;;5074931;28;20452;-74
2022/07/12 04:20:12;;;;;;;3.30;2.10;;;15.70;99.90;;;;;;5074901;28;20504;-74
2022/07/12 04:22:39;;;;;;;2.20;1.73;;;15.60;99.90;;;;;;5075106;28;20481;-74
2022/07/12 04:25:07;;;;;;;5.47;3.88;;;15.50;99.90;;;;;;5074789;28;20896;-74
2022/07/12 04:27:33;;;;;;;2.90;1.48;;;15.50;99.90;;;;;;5073800;28;20966;-74
2022/07/12 04:30:00;;;;;;;6.97;4.60;;;15.50;99.90;;;;;;5075377;28;20272;-74
2022/07/12 04:32:27;;;;;;;3.23;2.03;;;15.70;99.90;;;;;;5075364;28;20449;-75
2022/07/12 04:34:55;;;;;;;12.13;6.50;;;15.70;99.90;;;;;;5074673;28;20452;-75
2022/07/12 04:37:22;;;;;;;2.70;1.93;;;15.90;99.90;;;;;;5075008;28;20449;-74
2022/07/12 04:39:48;;;;;;;18.63;10.00;;;15.90;99.90;;;;;;5074804;28;20465;-74
2022/07/12 04:42:15;;;;;;;9.00;7.10;;;15.90;99.90;;;;;;5074775;28;20483;-74
2022/07/12 04:44:42;;;;;;;10.00;5.87;;;16.10;99.90;;;;;;5074509;28;20506;-74
2022/07/12 04:47:10;;;;;;;6.70;5.30;;;16.10;99.90;;;;;;5074405;28;20437;-75
2022/07/12 04:49:37;;;;;;;6.10;2.13;;;16.20;99.90;;;;;;5074420;28;20471;-74
2022/07/12 04:52:05;;;;;;;4.30;3.40;;;16.10;99.90;;;;;;5074595;28;20429;-75
2022/07/12 04:54:32;;;;;;;8.20;4.27;;;16.10;99.90;;;;;;5074173;28;20448;-74
2022/07/12 04:56:59;;;;;;;18.90;12.43;;;16.20;99.90;;;;;;5074147;28;20951;-75
2022/07/12 04:59:26;;;;;;;5.20;2.50;;;16.50;99.90;;;;;;5074340;28;20528;-75
2022/07/12 05:01:53;;;;;;;27.70;19.67;;;16.30;99.90;;;;;;5074266;28;20457;-75
2022/07/12 05:04:19;;;;;;;18.37;11.13;;;16.40;99.90;;;;;;5074312;28;20566;-75
2022/07/12 05:06:46;;;;;;;4.90;2.60;;;16.60;99.90;;;;;;5074185;28;20802;-75
2022/07/12 05:09:14;;;;;;;4.30;2.50;;;16.60;99.90;;;;;;5074114;28;20794;-75
2022/07/12 05:11:41;;;;;;;10.93;4.10;;;16.70;99.90;;;;;;5074221;28;20518;-75
2022/07/12 05:14:07;;;;;;;4.30;1.83;;;16.60;99.90;;;;;;5073932;28;20449;-75
2022/07/12 05:16:34;;;;;;;4.60;1.87;;;16.60;99.90;;;;;;5073085;28;20445;-75
2022/07/12 05:19:01;;;;;;;9.33;4.80;;;16.60;99.90;;;;;;5074039;28;20813;-74
2022/07/12 05:21:28;;;;;;;3.40;2.60;;;16.70;99.90;;;;;;5073962;28;20475;-74
2022/07/12 05:23:55;;;;;;;1.80;1.70;;;16.80;99.90;;;;;;5074203;28;20485;-74
2022/07/12 05:26:23;;;;;;;2.83;1.70;;;16.90;99.90;;;;;;5074504;28;20448;-74
2022/07/12 05:28:49;;;;;;;5.70;4.60;;;16.80;99.90;;;;;;5073968;28;20946;-74
2022/07/12 05:31:16;;;;;;;2.90;1.87;;;16.90;99.90;;;;;;5074693;28;20828;-74
2022/07/12 05:33:43;;;;;;;11.23;8.97;;;17.00;99.90;;;;;;5074783;28;20444;-74
2022/07/12 05:36:09;;;;;;;4.07;2.50;;;17.00;99.90;;;;;;5073790;28;20947;-74
2022/07/12 05:38:36;;;;;;;4.60;3.40;;;17.10;99.90;;;;;;5074465;28;20456;-74
2022/07/12 05:41:03;;;;;;;2.20;1.73;;;17.20;99.90;;;;;;5073692;28;20499;-75
2022/07/12 05:43:31;;;;;;;2.67;1.20;;;17.30;99.90;;;;;;5074441;28;20526;-75
2022/07/12 05:45:58;;;;;;;2.20;1.80;;;17.20;99.90;;;;;;5073714;28;20460;-74
2022/07/12 05:48:24;;;;;;;2.70;1.50;;;17.30;99.90;;;;;;5073650;28;20826;-75
2022/07/12 05:50:51;;;;;;;2.80;2.60;;;17.40;99.90;;;;;;5073311;28;20865;-75
2022/07/12 05:53:23;;;;;;;2.70;1.67;;;17.50;99.90;;;;;;5073322;28;20810;-75
2022/07/12 05:55:50;;;;;;;3.80;3.00;;;17.60;99.90;;;;;;5073336;28;20429;-76
2022/07/12 05:58:17;;;;;;;2.80;2.60;;;17.70;99.90;;;;;;5074826;28;20449;-75
2022/07/12 06:00:46;;;;;;;12.00;4.80;;;17.80;99.90;;;;;;5075191;28;20919;-75
2022/07/12 06:03:13;;;;;;;4.40;3.10;;;17.90;99.90;;;;;;5073212;28;20485;-75
2022/07/12 06:05:40;;;;;;;2.40;2.20;;;18.00;99.90;;;;;;5073222;28;20543;-75
2022/07/12 06:08:07;;;;;;;1.87;1.33;;;18.10;99.90;;;;;;5073022;28;20452;-75
2022/07/12 06:10:34;;;;;;;3.20;1.47;;;18.20;99.90;;;;;;5073157;28;20563;-75
2022/07/12 06:13:01;;;;;;;9.53;6.90;;;18.10;99.90;;;;;;5072780;28;20476;-75
2022/07/12 06:15:29;;;;;;;3.00;1.80;;;18.20;99.90;;;;;;5072783;28;20931;-75
2022/07/12 06:17:57;;;;;;;3.23;1.60;;;18.30;99.90;;;;;;5072431;28;20955;-76
2022/07/12 06:20:24;;;;;;;2.30;1.80;;;18.30;99.90;;;;;;5072623;28;20477;-75
2022/07/12 06:22:51;;;;;;;4.80;1.30;;;18.30;99.90;;;;;;5073981;28;20484;-75
2022/07/12 06:25:18;;;;;;;1.30;1.20;;;18.30;99.90;;;;;;5073945;28;20463;-75
2022/07/12 06:27:45;;;;;;;2.60;1.70;;;18.30;99.90;;;;;;5073582;28;20526;-75
2022/07/12 06:30:12;;;;;;;1.97;1.30;;;18.40;99.90;;;;;;5072391;28;20467;-74
2022/07/12 06:32:38;;;;;;;2.83;1.90;;;18.40;99.90;;;;;;5073895;28;20437;-75
2022/07/12 06:35:07;;;;;;;2.00;1.43;;;18.50;99.90;;;;;;5072605;28;20456;-75
2022/07/12 06:37:34;;;;;;;2.90;1.73;;;18.50;99.90;;;;;;5072959;28;20444;-75
2022/07/12 06:40:00;;;;;;;6.50;1.60;;;18.60;99.90;;;;;;5072389;28;20475;-75
2022/07/12 06:42:27;;;;;;;1.47;1.37;;;18.60;99.90;;;;;;5072954;28;20484;-77
2022/07/12 06:44:54;;;;;;;3.40;1.67;;;18.70;99.90;;;;;;5073030;28;20451;-76
2022/07/12 06:47:21;;;;;;;2.70;1.70;;;18.80;99.90;;;;;;5072510;28;20441;-76
2022/07/12 06:49:47;;;;;;;2.00;1.50;;;18.90;99.90;;;;;;5072695;28;20473;-76
2022/07/12 06:52:15;;;;;;;7.30;1.90;;;18.90;99.90;;;;;;5072587;28;20437;-75
2022/07/12 06:54:42;;;;;;;4.67;1.70;;;19.00;99.90;;;;;;5072878;28;20566;-76
2022/07/12 06:57:09;;;;;;;3.87;1.57;;;19.10;99.90;;;;;;5072030;28;20936;-75
2022/07/12 06:59:36;;;;;;;3.90;1.80;;;19.30;99.90;;;;;;5072509;28;20448;-76
2022/07/12 07:02:04;;;;;;;1.93;1.40;;;19.20;99.90;;;;;;5072161;28;20449;-76
2022/07/12 07:04:31;;;;;;;1.70;1.60;;;19.20;99.90;;;;;;5072403;28;20948;-76
2022/07/12 07:06:57;;;;;;;2.37;1.60;;;19.30;99.90;;;;;;5072614;28;20811;-77
2022/07/12 07:09:26;;;;;;;1.50;1.40;;;19.40;99.90;;;;;;5072560;28;20831;-75
2022/07/12 07:11:53;;;;;;;3.27;2.33;;;19.40;99.90;;;;;;5072135;28;20452;-76
2022/07/12 07:14:19;;;;;;;1.60;1.47;;;19.50;99.90;;;;;;5072101;28;20927;-77
2022/07/12 07:16:46;;;;;;;1.83;1.57;;;19.50;99.90;;;;;;5072194;28;20451;-76
2022/07/12 07:19:13;;;;;;;4.23;1.60;;;19.50;99.90;;;;;;5072406;28;20452;-76
2022/07/12 07:21:40;;;;;;;2.30;2.00;;;19.40;99.90;;;;;;5072070;28;21013;-76
2022/07/12 07:24:07;;;;;;;6.40;2.17;;;19.50;99.90;;;;;;5072146;28;20575;-77
2022/07/12 07:26:35;;;;;;;1.33;1.23;;;19.50;99.90;;;;;;5072476;28;20441;-76
2022/07/12 07:31:46;;;;;;;2.07;1.40;;;19.60;99.90;;;;;;5072698;28;20937;-77
2022/07/12 07:34:12;;;;;;;3.30;1.90;;;19.80;99.90;;;;;;5071563;28;20815;-74
2022/07/12 07:36:39;;;;;;;2.37;1.40;;;19.80;99.90;;;;;;5072238;28;20453;-75
2022/07/12 07:39:06;;;;;;;4.23;2.40;;;19.90;99.90;;;;;;5073687;28;20497;-75
2022/07/12 07:41:32;;;;;;;4.30;1.80;;;20.00;99.90;;;;;;5075811;28;20464;-74
2022/07/12 07:44:00;;;;;;;3.00;1.33;;;20.10;99.90;;;;;;5076086;28;20491;-74
2022/07/12 07:46:27;;;;;;;1.13;1.03;;;20.20;99.90;;;;;;5075534;28;20444;-74
2022/07/12 07:48:54;;;;;;;4.20;1.73;;;20.20;99.90;;;;;;5075551;28;20445;-75
2022/07/12 07:51:20;;;;;;;3.73;1.60;;;20.20;99.90;;;;;;5075292;28;20983;-74
2022/07/12 07:53:47;;;;;;;2.43;1.27;;;20.30;99.90;;;;;;5076351;28;20448;-74
2022/07/12 07:56:14;;;;;;;1.80;1.07;;;20.30;99.90;;;;;;5075578;28;20451;-73
2022/07/12 07:58:40;;;;;;;2.90;1.50;;;20.40;99.90;;;;;;5075639;28;20850;-75
2022/07/12 08:01:08;;;;;;;4.30;1.43;;;20.50;99.90;;;;;;5075668;28;20464;-76
2022/07/12 08:03:35;;;;;;;1.93;0.90;;;20.40;99.90;;;;;;5075960;28;20492;-75
2022/07/12 08:06:02;;;;;;;1.60;1.50;;;20.50;99.90;;;;;;5075287;28;20449;-74
2022/07/12 08:08:30;;;;;;;1.43;1.00;;;20.50;99.90;;;;;;5075659;28;20441;-75
2022/07/12 08:10:57;;;;;;;2.67;1.53;;;20.50;99.90;;;;;;5075750;28;20567;-74
2022/07/12 08:13:24;;;;;;;3.00;1.53;;;20.50;99.90;;;;;;5075313;28;20444;-75
2022/07/12 08:15:51;;;;;;;2.70;1.00;;;20.60;99.90;;;;;;5075538;28;20441;-74
2022/07/12 08:18:19;;;;;;;2.17;1.20;;;20.70;99.90;;;;;;5075498;28;20470;-75
2022/07/12 08:20:46;;;;;;;2.03;1.60;;;20.60;99.90;;;;;;5074843;28;21089;-75
2022/07/12 08:23:13;;;;;;;4.03;1.20;;;20.70;99.90;;;;;;5074867;28;20481;-75
2022/07/12 08:25:40;;;;;;;1.97;1.67;;;20.70;99.90;;;;;;5074665;28;20939;-74
2022/07/12 08:28:07;;;;;;;2.83;2.57;;;20.80;99.90;;;;;;5074986;28;20460;-72
2022/07/12 08:30:34;;;;;;;4.50;2.27;;;20.80;99.90;;;;;;5074814;28;20460;-74
2022/07/12 08:33:00;;;;;;;1.60;1.50;;;20.90;99.90;;;;;;5074869;28;20436;-73
2022/07/12 08:35:28;;;;;;;1.93;1.40;;;21.00;99.90;;;;;;5075658;28;20484;-74
2022/07/12 08:37:55;;;;;;;4.73;1.20;;;21.10;99.90;;;;;;5074888;28;20444;-74
2022/07/12 08:40:22;;;;;;;5.40;3.07;;;21.20;99.90;;;;;;5075204;28;20850;-75
2022/07/12 08:42:49;;;;;;;5.03;1.80;;;21.20;99.90;;;;;;5074509;28;20455;-74
2022/07/12 08:45:15;;;;;;;2.20;1.70;;;21.20;99.90;;;;;;5075502;28;20478;-73
2022/07/12 08:47:42;;;;;;;2.40;1.37;;;21.30;99.90;;;;;;5074749;28;20444;-74
2022/07/12 08:50:19;;;;;;;2.40;1.60;;;21.30;99.90;;;;;;5098412;22;20481;-75
2022/07/12 08:52:49;;;;;;;1.60;1.40;;;21.40;99.90;;;;;;5076662;28;20528;-75
2022/07/12 08:55:22;;;;;;;3.13;1.87;;;21.40;99.90;;;;;;5076060;28;20519;-74
2022/07/12 08:57:49;;;;;;;5.73;1.30;;;21.30;99.90;;;;;;5075931;28;20452;-74
2022/07/12 09:00:17;;;;;;;2.67;1.23;;;21.40;99.90;;;;;;5075654;28;20496;-75
2022/07/12 09:02:51;;;;;;;1.63;1.37;;;21.40;99.90;;;;;;5075911;28;20449;-74
2022/07/12 09:05:19;;;;;;;2.23;2.03;;;21.50;99.90;;;;;;5076050;28;20462;-74
2022/07/12 09:07:48;;;;;;;2.10;1.10;;;21.60;99.90;;;;;;5076055;28;20561;-75
2022/07/12 09:10:15;;;;;;;2.70;1.23;;;21.70;99.90;;;;;;5075906;28;20475;-74
2022/07/12 09:12:43;;;;;;;4.27;1.50;;;21.70;99.90;;;;;;5075591;28;20446;-74
2022/07/12 09:15:15;;;;;;;2.70;1.17;;;21.80;99.90;;;;;;5075281;28;20460;-74
2022/07/12 09:17:47;;;;;;;1.53;1.20;;;21.90;99.90;;;;;;5075156;28;20970;-74
2022/07/12 09:20:15;;;;;;;1.40;1.00;;;22.00;99.90;;;;;;5075992;28;20562;-75
2022/07/12 09:22:54;;;;;;;1.90;0.93;;;22.00;99.90;;;;;;5075368;28;20456;-74
2022/07/12 09:25:21;;;;;;;1.27;1.27;;;22.10;99.90;;;;;;5075145;28;20417;-76
2022/07/12 09:27:50;;;;;;;1.83;1.20;;;22.10;99.90;;;;;;5075026;28;20444;-75
2022/07/12 09:30:17;;;;;;;2.03;1.40;;;22.20;99.90;;;;;;5075541;28;20500;-74
2022/07/12 09:38:27;;;;;;;3.27;1.27;;;22.20;99.90;;;;;;5074267;28;20927;-75
2022/07/12 09:40:55;;;;;;;1.47;1.10;;;22.20;99.90;;;;;;5074305;28;20566;-75
2022/07/12 09:43:23;;;;;;;2.83;1.40;;;22.30;99.90;;;;;;5074304;28;20488;-75
2022/07/12 09:45:51;;;;;;;2.60;1.40;;;22.40;99.90;;;;;;5074870;28;20444;-75
2022/07/12 09:48:19;;;;;;;1.37;1.07;;;22.40;99.90;;;;;;5073828;28;20967;-75
2022/07/12 09:50:48;;;;;;;2.87;1.10;;;22.50;99.90;;;;;;5073625;28;20481;-73
2022/07/12 09:53:21;;;;;;;3.13;1.37;;;22.50;99.90;;;;;;5073969;28;20437;-74
2022/07/12 09:55:51;;;;;;;3.33;1.63;;;22.50;99.90;;;;;;5075206;28;20498;-74
2022/07/12 09:58:23;;;;;;;1.60;1.33;;;22.50;99.90;;;;;;5074114;28;20955;-75
2022/07/12 10:00:53;;;;;;;4.10;1.13;;;22.60;99.90;;;;;;5073623;28;20471;-75
2022/07/12 10:03:22;;;;;;;1.43;1.30;;;22.60;99.90;;;;;;5075174;28;20895;-74
2022/07/12 10:05:51;;;;;;;3.40;0.93;;;22.60;99.90;;;;;;5073929;28;20866;-74
2022/07/12 10:08:20;;;;;;;1.13;1.00;;;22.70;99.90;;;;;;5074068;28;20444;-74
2022/07/12 10:10:47;;;;;;;1.10;1.00;;;22.70;99.90;;;;;;5074663;28;20486;-75
2022/07/12 10:13:16;;;;;;;1.83;1.03;;;22.90;99.90;;;;;;5073593;28;20459;-74
2022/07/12 10:15:44;;;;;;;5.13;1.33;;;22.90;99.90;;;;;;5073396;28;20951;-74
2022/07/12 10:18:17;;;;;;;1.00;0.90;;;23.00;99.90;;;;;;5073541;28;20449;-75
2022/07/12 10:20:44;;;;;;;3.27;1.23;;;23.10;99.90;;;;;;5073445;28;20552;-75
2022/07/12 10:23:35;;;;;;;1.97;1.40;;;23.10;99.90;;;;;;5074026;28;20506;-74
2022/07/12 10:26:24;;;;;;;1.87;1.40;;;23.20;99.90;;;;;;5073889;28;20501;-74
2022/07/12 10:29:01;;;;;;;1.57;1.47;;;23.30;99.90;;;;;;5074755;28;20436;-74
2022/07/12 10:31:31;;;;;;;1.77;1.20;;;23.40;99.90;;;;;;5073403;28;20460;-74
2022/07/12 10:34:09;;;;;;;2.20;2.00;;;23.30;99.90;;;;;;5073551;28;20441;-75
2022/07/12 10:37:08;;;;;;;2.20;1.93;;;23.30;99.90;;;;;;5074921;28;20429;-75
2022/07/12 10:39:35;;;;;;;1.67;1.27;;;23.40;99.90;;;;;;5073444;28;20429;-75
2022/07/12 10:42:15;;;;;;;2.43;1.03;;;23.40;99.90;;;;;;5073314;28;20461;-75
2022/07/12 10:44:47;;;;;;;2.20;1.00;;;23.30;99.90;;;;;;5073319;28;20476;-75
2022/07/12 10:47:15;;;;;;;2.83;1.30;;;23.30;99.90;;;;;;5073450;28;20432;-75
2022/07/12 10:49:50;;;;;;;2.27;1.37;;;23.30;99.90;;;;;;5073298;28;20498;-75
2022/07/12 10:52:24;;;;;;;2.93;1.17;;;23.40;99.90;;;;;;5073353;28;20433;-75
2022/07/12 10:55:19;;;;;;;1.40;0.90;;;23.40;99.90;;;;;;5073005;28;20421;-75
2022/07/12 10:57:50;;;;;;;2.17;1.30;;;23.50;99.90;;;;;;5073411;28;20462;-75
2022/07/12 11:00:19;;;;;;;2.70;1.83;;;23.60;99.90;;;;;;5072987;28;21022;-75
2022/07/12 11:02:46;;;;;;;1.27;1.17;;;23.60;99.90;;;;;;5074512;28;20522;-76
2022/07/12 11:05:13;;;;;;;3.37;1.10;;;23.60;99.90;;;;;;5074097;28;20539;-75
2022/07/12 11:07:40;;;;;;;1.77;1.00;;;23.60;99.90;;;;;;5073359;28;20444;-75
2022/07/12 11:10:14;;;;;;;1.20;1.10;;;23.60;99.90;;;;;;5073505;28;20480;-74
2022/07/12 11:12:41;;;;;;;1.30;1.00;;;23.50;99.90;;;;;;5076540;28;20436;-75
2022/07/12 11:15:09;;;;;;;5.03;1.63;;;23.90;99.90;;;;;;5077847;28;20445;-75
2022/07/12 11:17:37;;;;;;;0.90;0.80;;;23.60;99.90;;;;;;5078438;28;20452;-74
2022/07/12 11:20:10;;;;;;;1.93;1.43;;;23.60;99.90;;;;;;5078508;28;20461;-75
2022/07/12 11:22:38;;;;;;;1.10;1.00;;;23.80;99.90;;;;;;5077990;28;20449;-75
2022/07/12 11:25:08;;;;;;;1.30;1.20;;;23.90;99.90;;;;;;5078176;28;21021;-74
2022/07/12 11:27:40;;;;;;;1.10;1.03;;;23.80;99.90;;;;;;5078624;28;20452;-75
2022/07/12 11:30:08;;;;;;;7.17;2.57;;;23.60;99.90;;;;;;5077523;28;20473;-73
2022/07/12 11:32:39;;;;;;;2.30;1.30;;;23.60;99.90;;;;;;5077878;28;20852;-75
2022/07/12 11:35:18;;;;;;;2.77;1.33;;;23.70;99.90;;;;;;5078160;28;20833;-76
2022/07/12 11:37:52;;;;;;;1.20;0.93;;;23.90;99.90;;;;;;5077725;28;20860;-74
2022/07/12 11:40:23;;;;;;;2.90;1.03;;;24.00;99.90;;;;;;5077233;28;20470;-75
2022/07/12 11:42:55;;;;;;;1.23;1.00;;;23.90;99.90;;;;;;5077308;28;20432;-75
2022/07/12 11:45:22;;;;;;;1.93;1.43;;;23.90;99.90;;;;;;5076498;28;20606;-75
2022/07/12 11:47:50;;;;;;;2.00;1.20;;;23.80;99.90;;;;;;5077727;28;20538;-74
2022/07/12 11:50:19;;;;;;;0.90;0.90;;;23.80;99.90;;;;;;5077578;28;20490;-74
2022/07/12 11:52:46;;;;;;;2.00;1.20;;;23.70;99.90;;;;;;5078978;28;20428;-74
2022/07/12 11:55:14;;;;;;;1.43;1.33;;;23.70;99.90;;;;;;5076701;28;20464;-74
2022/07/12 11:57:40;;;;;;;1.93;1.20;;;23.70;99.90;;;;;;5077533;28;20543;-74
2022/07/12 12:00:17;;;;;;;1.83;1.20;;;23.80;99.90;;;;;;5076389;28;20468;-75
2022/07/12 12:02:44;;;;;;;2.40;1.00;;;23.90;99.90;;;;;;5076229;28;20486;-75
2022/07/12 12:05:15;;;;;;;1.80;1.00;;;24.00;99.90;;;;;;5075837;28;20523;-75
2022/07/12 12:07:42;;;;;;;2.00;1.20;;;24.10;99.90;;;;;;5076291;28;20930;-74
2022/07/12 12:10:13;;;;;;;1.20;1.10;;;24.30;99.90;;;;;;5076392;28;20486;-74
2022/07/12 12:12:42;;;;;;;1.20;1.10;;;24.40;99.90;;;;;;5076259;28;20884;-75
2022/07/12 12:15:11;;;;;;;1.67;1.10;;;24.50;99.90;;;;;;5076345;28;20451;-76
2022/07/12 12:17:43;;;;;;;1.87;1.27;;;24.50;99.90;;;;;;5075831;28;20861;-74
2022/07/12 12:20:16;;;;;;;1.20;1.10;;;24.30;99.90;;;;;;5076205;28;20959;-75
2022/07/12 12:22:44;;;;;;;1.40;1.30;;;24.30;99.90;;;;;;5076669;28;20433;-74
2022/07/12 12:25:14;;;;;;;1.63;1.07;;;24.30;99.90;;;;;;5075608;28;20507;-74
2022/07/12 12:27:43;;;;;;;2.83;0.90;;;24.40;99.90;;;;;;5076043;28;20456;-74
2022/07/12 12:30:11;;;;;;;1.20;1.10;;;24.50;99.90;;;;;;5075712;28;20468;-75
2022/07/12 12:32:47;;;;;;;1.30;1.10;;;24.60;99.90;;;;;;5076355;28;20460;-74
2022/07/12 12:35:17;;;;;;;1.40;1.27;;;24.50;99.90;;;;;;5076065;28;20433;-74
2022/07/12 12:37:52;;;;;;;2.70;1.67;;;24.40;99.90;;;;;;5075687;28;20432;-75
2022/07/12 12:40:20;;;;;;;1.50;1.20;;;24.50;99.90;;;;;;5075537;28;20475;-75
2022/07/12 12:42:47;;;;;;;1.80;1.20;;;24.70;99.90;;;;;;5075112;28;20449;-75
2022/07/12 12:45:25;;;;;;;1.00;0.97;;;24.60;99.90;;;;;;5075620;28;20495;-75
2022/07/12 12:47:57;;;;;;;1.37;1.03;;;24.60;99.90;;;;;;5075740;28;20448;-74
2022/07/12 12:50:45;;;;;;;1.30;1.20;;;24.70;99.90;;;;;;5075192;28;20477;-74
2022/07/12 12:53:14;;;;;;;3.47;2.00;;;24.70;99.90;;;;;;5076366;28;20771;-76
2022/07/12 12:55:43;;;;;;;1.57;1.27;;;24.70;99.90;;;;;;5075487;28;20445;-75
2022/07/12 12:58:10;;;;;;;2.60;2.03;;;24.80;99.90;;;;;;5075381;28;20454;-75
2022/07/12 13:00:39;;;;;;;1.20;1.10;;;24.90;99.90;;;;;;5075784;28;20475;-76
2022/07/12 13:03:06;;;;;;;1.73;1.03;;;25.00;99.90;;;;;;5075442;28;20441;-75